sensor_id;sensor_type;location;lat;lon;timestamp;temperature;humidity
318;DHT22;146;53.448;10.228;2022-09-01T00:01:11;15.00;1.00
318;DHT22;146;53.448;10.228;2022-09-01T00:03:44;15.00;1.00
318;DHT22;146;53.448;10.228;2022-09-01T00:06:11;15.00;1.00
318;DHT22;146;53.448;10.228;2022-09-01T00:08:38;15.00;1.00
318;DHT22;146;53.448;10.228;2022-09-01T00:11:05;14.90;1.00
318;DHT22;146;53.448;10.228;2022-09-01T00:13:33;14.90;1.00
318;DHT22;146;53.448;10.228;2022-09-01T00:16:00;14.90;1.00
318;DHT22;146;53.448;10.228;2022-09-01T00:18:30;14.90;1.00
318;DHT22;146;53.448;10.228;2022-09-01T00:20:57;14.80;1.00
318;DHT22;146;53.448;10.228;2022-09-01T00:23:25;14.90;1.00
318;DHT22;146;53.448;10.228;2022-09-01T00:25:52;14.80;1.00
318;DHT22;146;53.448;10.228;2022-09-01T00:28:19;14.80;1.00
318;DHT22;146;53.448;10.228;2022-09-01T00:30:46;14.80;1.00
318;DHT22;146;53.448;10.228;2022-09-01T00:33:12;14.70;1.00
318;DHT22;146;53.448;10.228;2022-09-01T00:35:41;14.80;1.00
318;DHT22;146;53.448;10.228;2022-09-01T00:38:07;14.70;1.00
318;DHT22;146;53.448;10.228;2022-09-01T00:40:34;14.80;1.00
318;DHT22;146;53.448;10.228;2022-09-01T00:43:10;14.70;1.00
318;DHT22;146;53.448;10.228;2022-09-01T00:45:40;14.70;1.00
318;DHT22;146;53.448;10.228;2022-09-01T00:48:07;14.70;1.00
318;DHT22;146;53.448;10.228;2022-09-01T00:50:36;14.70;1.00
318;DHT22;146;53.448;10.228;2022-09-01T00:53:05;14.60;1.00
318;DHT22;146;53.448;10.228;2022-09-01T00:55:34;14.60;1.00
318;DHT22;146;53.448;10.228;2022-09-01T00:58:04;14.60;1.00
318;DHT22;146;53.448;10.228;2022-09-01T01:00:36;14.60;1.00
318;DHT22;146;53.448;10.228;2022-09-01T01:03:07;14.60;1.00
318;DHT22;146;53.448;10.228;2022-09-01T01:05:37;14.50;1.00
318;DHT22;146;53.448;10.228;2022-09-01T01:08:07;14.60;1.00
318;DHT22;146;53.448;10.228;2022-09-01T01:10:38;14.60;1.00
318;DHT22;146;53.448;10.228;2022-09-01T01:13:08;14.60;1.00
318;DHT22;146;53.448;10.228;2022-09-01T01:15:35;14.50;1.00
318;DHT22;146;53.448;10.228;2022-09-01T01:18:02;14.50;1.00
318;DHT22;146;53.448;10.228;2022-09-01T01:20:30;14.50;1.00
318;DHT22;146;53.448;10.228;2022-09-01T01:23:20;14.50;1.00
318;DHT22;146;53.448;10.228;2022-09-01T01:25:54;14.50;1.00
318;DHT22;146;53.448;10.228;2022-09-01T01:28:24;14.50;1.00
318;DHT22;146;53.448;10.228;2022-09-01T01:30:57;14.50;1.00
318;DHT22;146;53.448;10.228;2022-09-01T01:33:28;14.50;1.00
318;DHT22;146;53.448;10.228;2022-09-01T01:35:56;14.50;1.00
318;DHT22;146;53.448;10.228;2022-09-01T01:38:25;14.40;1.00
318;DHT22;146;53.448;10.228;2022-09-01T01:40:53;14.40;1.00
318;DHT22;146;53.448;10.228;2022-09-01T01:43:20;14.40;1.00
318;DHT22;146;53.448;10.228;2022-09-01T01:45:48;14.40;1.00
318;DHT22;146;53.448;10.228;2022-09-01T01:48:16;14.40;1.00
318;DHT22;146;53.448;10.228;2022-09-01T01:50:48;14.40;1.00
318;DHT22;146;53.448;10.228;2022-09-01T01:53:15;14.40;1.00
318;DHT22;146;53.448;10.228;2022-09-01T01:55:44;14.40;1.00
318;DHT22;146;53.448;10.228;2022-09-01T01:58:12;14.40;1.00
318;DHT22;146;53.448;10.228;2022-09-01T02:00:40;14.40;1.00
318;DHT22;146;53.448;10.228;2022-09-01T02:03:09;14.40;1.00
318;DHT22;146;53.448;10.228;2022-09-01T02:05:42;14.40;1.00
318;DHT22;146;53.448;10.228;2022-09-01T02:08:09;14.40;1.00
318;DHT22;146;53.448;10.228;2022-09-01T02:10:39;14.40;1.00
318;DHT22;146;53.448;10.228;2022-09-01T02:13:09;14.40;1.00
318;DHT22;146;53.448;10.228;2022-09-01T02:15:44;14.40;1.00
318;DHT22;146;53.448;10.228;2022-09-01T02:18:14;14.40;1.00
318;DHT22;146;53.448;10.228;2022-09-01T02:20:42;14.40;1.00
318;DHT22;146;53.448;10.228;2022-09-01T02:23:10;14.40;1.00
318;DHT22;146;53.448;10.228;2022-09-01T02:25:42;14.40;1.00
318;DHT22;146;53.448;10.228;2022-09-01T02:28:11;14.40;1.00
318;DHT22;146;53.448;10.228;2022-09-01T02:30:42;14.30;1.00
318;DHT22;146;53.448;10.228;2022-09-01T02:33:10;14.30;1.00
318;DHT22;146;53.448;10.228;2022-09-01T02:35:43;14.30;1.00
318;DHT22;146;53.448;10.228;2022-09-01T02:38:10;14.20;1.00
318;DHT22;146;53.448;10.228;2022-09-01T02:40:38;14.20;1.00
318;DHT22;146;53.448;10.228;2022-09-01T02:43:05;14.30;1.00
318;DHT22;146;53.448;10.228;2022-09-01T02:45:32;14.30;1.00
318;DHT22;146;53.448;10.228;2022-09-01T02:48:02;14.30;1.00
318;DHT22;146;53.448;10.228;2022-09-01T02:50:32;14.30;1.00
318;DHT22;146;53.448;10.228;2022-09-01T02:52:59;14.30;1.00
318;DHT22;146;53.448;10.228;2022-09-01T02:55:26;14.20;1.00
318;DHT22;146;53.448;10.228;2022-09-01T02:57:53;14.30;1.00
318;DHT22;146;53.448;10.228;2022-09-01T03:00:23;14.30;1.00
318;DHT22;146;53.448;10.228;2022-09-01T03:03:00;14.40;1.00
318;DHT22;146;53.448;10.228;2022-09-01T03:05:29;14.40;1.00
318;DHT22;146;53.448;10.228;2022-09-01T03:07:59;14.40;1.00
318;DHT22;146;53.448;10.228;2022-09-01T03:10:31;14.50;1.00
318;DHT22;146;53.448;10.228;2022-09-01T03:13:00;14.50;1.00
318;DHT22;146;53.448;10.228;2022-09-01T03:15:27;14.50;1.00
318;DHT22;146;53.448;10.228;2022-09-01T03:17:55;14.50;1.00
318;DHT22;146;53.448;10.228;2022-09-01T03:20:28;14.50;1.00
318;DHT22;146;53.448;10.228;2022-09-01T03:22:55;14.60;1.00
318;DHT22;146;53.448;10.228;2022-09-01T03:25:24;14.60;1.00
318;DHT22;146;53.448;10.228;2022-09-01T03:27:53;14.60;1.00
318;DHT22;146;53.448;10.228;2022-09-01T03:30:20;14.60;1.00
318;DHT22;146;53.448;10.228;2022-09-01T03:32:47;14.60;1.00
318;DHT22;146;53.448;10.228;2022-09-01T03:35:14;14.60;1.00
318;DHT22;146;53.448;10.228;2022-09-01T03:37:43;14.50;1.00
318;DHT22;146;53.448;10.228;2022-09-01T03:40:11;14.50;1.00
318;DHT22;146;53.448;10.228;2022-09-01T03:42:38;14.50;1.00
318;DHT22;146;53.448;10.228;2022-09-01T03:45:06;14.50;1.00
318;DHT22;146;53.448;10.228;2022-09-01T03:47:34;14.50;1.00
318;DHT22;146;53.448;10.228;2022-09-01T03:50:04;14.50;1.00
318;DHT22;146;53.448;10.228;2022-09-01T03:52:36;14.40;1.00
318;DHT22;146;53.448;10.228;2022-09-01T03:55:12;14.30;1.00
318;DHT22;146;53.448;10.228;2022-09-01T03:57:42;14.30;1.00
318;DHT22;146;53.448;10.228;2022-09-01T04:00:12;14.20;1.00
318;DHT22;146;53.448;10.228;2022-09-01T04:02:48;14.20;1.00
318;DHT22;146;53.448;10.228;2022-09-01T04:05:16;14.20;1.00
318;DHT22;146;53.448;10.228;2022-09-01T04:07:43;14.10;1.00
318;DHT22;146;53.448;10.228;2022-09-01T04:10:13;14.10;1.00
318;DHT22;146;53.448;10.228;2022-09-01T04:12:40;14.00;1.00
318;DHT22;146;53.448;10.228;2022-09-01T04:15:07;14.00;1.00
318;DHT22;146;53.448;10.228;2022-09-01T04:17:34;14.00;1.00
318;DHT22;146;53.448;10.228;2022-09-01T04:20:18;13.90;1.00
318;DHT22;146;53.448;10.228;2022-09-01T04:22:46;13.90;1.00
318;DHT22;146;53.448;10.228;2022-09-01T04:25:17;13.80;1.00
318;DHT22;146;53.448;10.228;2022-09-01T04:27:48;13.80;1.00
318;DHT22;146;53.448;10.228;2022-09-01T04:30:15;13.70;1.00
318;DHT22;146;53.448;10.228;2022-09-01T04:32:41;13.70;1.00
318;DHT22;146;53.448;10.228;2022-09-01T04:35:11;13.70;1.00
318;DHT22;146;53.448;10.228;2022-09-01T04:37:42;13.70;1.00
318;DHT22;146;53.448;10.228;2022-09-01T04:40:12;13.70;1.00
318;DHT22;146;53.448;10.228;2022-09-01T04:42:41;13.70;1.00
318;DHT22;146;53.448;10.228;2022-09-01T04:45:09;13.70;1.00
318;DHT22;146;53.448;10.228;2022-09-01T04:47:37;13.60;1.00
318;DHT22;146;53.448;10.228;2022-09-01T04:50:08;13.60;1.00
318;DHT22;146;53.448;10.228;2022-09-01T04:52:38;13.60;1.00
318;DHT22;146;53.448;10.228;2022-09-01T04:55:07;13.60;1.00
318;DHT22;146;53.448;10.228;2022-09-01T04:57:43;13.60;1.00
318;DHT22;146;53.448;10.228;2022-09-01T05:00:13;13.50;1.00
318;DHT22;146;53.448;10.228;2022-09-01T05:02:47;13.50;1.00
318;DHT22;146;53.448;10.228;2022-09-01T05:05:16;13.50;1.00
318;DHT22;146;53.448;10.228;2022-09-01T05:07:43;13.60;1.00
318;DHT22;146;53.448;10.228;2022-09-01T05:10:11;13.60;1.00
318;DHT22;146;53.448;10.228;2022-09-01T05:12:38;13.60;1.00
318;DHT22;146;53.448;10.228;2022-09-01T05:15:08;13.60;1.00
318;DHT22;146;53.448;10.228;2022-09-01T05:17:34;13.60;1.00
318;DHT22;146;53.448;10.228;2022-09-01T05:20:03;13.60;1.00
318;DHT22;146;53.448;10.228;2022-09-01T05:22:31;13.70;1.00
318;DHT22;146;53.448;10.228;2022-09-01T05:24:58;13.70;1.00
318;DHT22;146;53.448;10.228;2022-09-01T05:27:38;13.70;1.00
318;DHT22;146;53.448;10.228;2022-09-01T05:30:08;13.70;1.00
318;DHT22;146;53.448;10.228;2022-09-01T05:32:35;13.80;1.00
318;DHT22;146;53.448;10.228;2022-09-01T05:35:05;13.80;1.00
318;DHT22;146;53.448;10.228;2022-09-01T05:37:34;13.90;1.00
318;DHT22;146;53.448;10.228;2022-09-01T05:40:04;13.90;1.00
318;DHT22;146;53.448;10.228;2022-09-01T05:42:31;13.90;1.00
318;DHT22;146;53.448;10.228;2022-09-01T05:44:58;13.90;1.00
318;DHT22;146;53.448;10.228;2022-09-01T05:47:27;14.00;1.00
318;DHT22;146;53.448;10.228;2022-09-01T05:49:54;14.00;1.00
318;DHT22;146;53.448;10.228;2022-09-01T05:52:23;14.10;1.00
318;DHT22;146;53.448;10.228;2022-09-01T05:54:51;14.10;1.00
318;DHT22;146;53.448;10.228;2022-09-01T05:57:21;14.10;1.00
318;DHT22;146;53.448;10.228;2022-09-01T05:59:48;14.20;1.00
318;DHT22;146;53.448;10.228;2022-09-01T06:02:19;14.20;1.00
318;DHT22;146;53.448;10.228;2022-09-01T06:04:47;14.30;1.00
318;DHT22;146;53.448;10.228;2022-09-01T06:07:15;14.40;1.00
318;DHT22;146;53.448;10.228;2022-09-01T06:09:44;14.40;1.00
318;DHT22;146;53.448;10.228;2022-09-01T06:12:12;14.50;1.00
318;DHT22;146;53.448;10.228;2022-09-01T06:14:43;14.50;1.00
318;DHT22;146;53.448;10.228;2022-09-01T06:17:10;14.50;1.00
318;DHT22;146;53.448;10.228;2022-09-01T06:19:40;14.60;1.00
318;DHT22;146;53.448;10.228;2022-09-01T06:22:09;14.70;1.00
318;DHT22;146;53.448;10.228;2022-09-01T06:24:36;14.70;1.00
318;DHT22;146;53.448;10.228;2022-09-01T06:27:04;14.70;1.00
318;DHT22;146;53.448;10.228;2022-09-01T06:29:34;14.80;1.00
318;DHT22;146;53.448;10.228;2022-09-01T06:32:04;14.80;1.00
318;DHT22;146;53.448;10.228;2022-09-01T06:34:35;14.80;1.00
318;DHT22;146;53.448;10.228;2022-09-01T06:37:04;14.90;1.00
318;DHT22;146;53.448;10.228;2022-09-01T06:39:32;15.00;1.00
318;DHT22;146;53.448;10.228;2022-09-01T06:41:59;14.90;1.00
318;DHT22;146;53.448;10.228;2022-09-01T06:44:27;15.00;1.00
318;DHT22;146;53.448;10.228;2022-09-01T06:46:57;15.10;1.00
318;DHT22;146;53.448;10.228;2022-09-01T06:49:24;15.20;1.00
318;DHT22;146;53.448;10.228;2022-09-01T06:51:56;15.20;1.00
318;DHT22;146;53.448;10.228;2022-09-01T06:54:23;15.30;1.00
318;DHT22;146;53.448;10.228;2022-09-01T06:56:52;15.30;1.00
318;DHT22;146;53.448;10.228;2022-09-01T06:59:19;15.40;1.00
318;DHT22;146;53.448;10.228;2022-09-01T07:01:46;15.50;1.00
318;DHT22;146;53.448;10.228;2022-09-01T07:04:15;15.40;1.00
318;DHT22;146;53.448;10.228;2022-09-01T07:06:46;15.50;1.00
318;DHT22;146;53.448;10.228;2022-09-01T07:09:17;15.60;1.00
318;DHT22;146;53.448;10.228;2022-09-01T07:11:44;15.70;1.00
318;DHT22;146;53.448;10.228;2022-09-01T07:14:12;15.70;1.00
318;DHT22;146;53.448;10.228;2022-09-01T07:16:41;15.70;1.00
318;DHT22;146;53.448;10.228;2022-09-01T07:19:09;15.80;1.00
318;DHT22;146;53.448;10.228;2022-09-01T07:21:40;15.90;1.00
318;DHT22;146;53.448;10.228;2022-09-01T07:24:07;15.90;1.00
318;DHT22;146;53.448;10.228;2022-09-01T07:26:34;15.90;1.00
318;DHT22;146;53.448;10.228;2022-09-01T07:29:03;15.90;1.00
318;DHT22;146;53.448;10.228;2022-09-01T07:31:34;16.10;1.00
318;DHT22;146;53.448;10.228;2022-09-01T07:34:05;16.10;1.00
318;DHT22;146;53.448;10.228;2022-09-01T07:36:37;16.20;1.00
318;DHT22;146;53.448;10.228;2022-09-01T07:39:04;16.30;1.00
318;DHT22;146;53.448;10.228;2022-09-01T07:41:31;16.40;1.00
318;DHT22;146;53.448;10.228;2022-09-01T07:43:59;16.50;1.00
318;DHT22;146;53.448;10.228;2022-09-01T07:46:28;16.50;1.00
318;DHT22;146;53.448;10.228;2022-09-01T07:48:58;16.60;1.00
318;DHT22;146;53.448;10.228;2022-09-01T07:51:26;16.60;1.00
318;DHT22;146;53.448;10.228;2022-09-01T07:53:54;16.70;1.00
318;DHT22;146;53.448;10.228;2022-09-01T07:56:23;16.80;1.00
318;DHT22;146;53.448;10.228;2022-09-01T07:58:50;16.80;1.00
318;DHT22;146;53.448;10.228;2022-09-01T08:01:19;16.80;1.00
318;DHT22;146;53.448;10.228;2022-09-01T08:03:49;16.90;1.00
318;DHT22;146;53.448;10.228;2022-09-01T08:06:20;17.00;1.00
318;DHT22;146;53.448;10.228;2022-09-01T08:08:49;17.00;1.00
318;DHT22;146;53.448;10.228;2022-09-01T08:11:16;17.10;1.00
318;DHT22;146;53.448;10.228;2022-09-01T08:13:44;17.20;1.00
318;DHT22;146;53.448;10.228;2022-09-01T08:16:12;17.20;1.00
318;DHT22;146;53.448;10.228;2022-09-01T08:18:40;17.30;1.00
318;DHT22;146;53.448;10.228;2022-09-01T08:21:07;17.40;1.00
318;DHT22;146;53.448;10.228;2022-09-01T08:23:35;17.60;1.00
318;DHT22;146;53.448;10.228;2022-09-01T08:26:04;17.60;1.00
318;DHT22;146;53.448;10.228;2022-09-01T08:28:32;17.70;1.00
318;DHT22;146;53.448;10.228;2022-09-01T08:30:59;17.80;1.00
318;DHT22;146;53.448;10.228;2022-09-01T08:33:26;17.80;1.00
318;DHT22;146;53.448;10.228;2022-09-01T08:35:53;17.90;1.00
318;DHT22;146;53.448;10.228;2022-09-01T08:38:21;17.90;1.00
318;DHT22;146;53.448;10.228;2022-09-01T08:40:52;18.00;1.00
318;DHT22;146;53.448;10.228;2022-09-01T08:43:24;18.00;1.00
318;DHT22;146;53.448;10.228;2022-09-01T08:45:54;18.10;1.00
318;DHT22;146;53.448;10.228;2022-09-01T08:48:26;18.10;1.00
318;DHT22;146;53.448;10.228;2022-09-01T08:51:02;18.10;1.00
318;DHT22;146;53.448;10.228;2022-09-01T08:53:33;18.10;1.00
318;DHT22;146;53.448;10.228;2022-09-01T08:56:04;18.10;1.00
318;DHT22;146;53.448;10.228;2022-09-01T08:58:31;18.20;1.00
318;DHT22;146;53.448;10.228;2022-09-01T09:01:02;18.20;1.00
318;DHT22;146;53.448;10.228;2022-09-01T09:03:35;18.30;1.00
318;DHT22;146;53.448;10.228;2022-09-01T09:06:14;18.30;1.00
318;DHT22;146;53.448;10.228;2022-09-01T09:08:51;18.30;1.00
318;DHT22;146;53.448;10.228;2022-09-01T09:11:38;18.40;1.00
318;DHT22;146;53.448;10.228;2022-09-01T09:14:13;18.40;1.00
318;DHT22;146;53.448;10.228;2022-09-01T09:16:41;18.50;1.00
318;DHT22;146;53.448;10.228;2022-09-01T09:19:12;18.60;1.00
318;DHT22;146;53.448;10.228;2022-09-01T09:21:44;18.60;1.00
318;DHT22;146;53.448;10.228;2022-09-01T09:24:18;18.60;1.00
318;DHT22;146;53.448;10.228;2022-09-01T09:26:48;18.80;1.00
318;DHT22;146;53.448;10.228;2022-09-01T09:29:15;18.80;1.00
318;DHT22;146;53.448;10.228;2022-09-01T09:31:42;18.80;1.00
318;DHT22;146;53.448;10.228;2022-09-01T09:34:32;18.80;1.00
318;DHT22;146;53.448;10.228;2022-09-01T09:37:20;18.80;1.00
318;DHT22;146;53.448;10.228;2022-09-01T09:40:07;19.00;1.00
318;DHT22;146;53.448;10.228;2022-09-01T09:42:36;19.00;1.00
318;DHT22;146;53.448;10.228;2022-09-01T09:45:07;19.00;1.00
318;DHT22;146;53.448;10.228;2022-09-01T09:47:44;19.00;1.00
318;DHT22;146;53.448;10.228;2022-09-01T09:50:23;19.10;1.00
318;DHT22;146;53.448;10.228;2022-09-01T09:52:52;19.20;1.00
318;DHT22;146;53.448;10.228;2022-09-01T09:55:24;19.20;1.00
318;DHT22;146;53.448;10.228;2022-09-01T09:57:57;19.20;1.00
318;DHT22;146;53.448;10.228;2022-09-01T10:00:28;19.30;1.00
318;DHT22;146;53.448;10.228;2022-09-01T10:02:58;19.50;1.00
318;DHT22;146;53.448;10.228;2022-09-01T10:05:36;19.50;1.00
318;DHT22;146;53.448;10.228;2022-09-01T10:08:07;19.60;1.00
318;DHT22;146;53.448;10.228;2022-09-01T10:10:39;19.70;1.00
318;DHT22;146;53.448;10.228;2022-09-01T10:13:11;19.70;1.00
318;DHT22;146;53.448;10.228;2022-09-01T10:15:39;19.80;1.00
318;DHT22;146;53.448;10.228;2022-09-01T10:18:09;19.90;1.00
318;DHT22;146;53.448;10.228;2022-09-01T10:20:41;19.90;1.00
318;DHT22;146;53.448;10.228;2022-09-01T10:23:11;19.90;1.00
318;DHT22;146;53.448;10.228;2022-09-01T10:25:39;20.00;1.00
318;DHT22;146;53.448;10.228;2022-09-01T10:28:11;20.00;1.00
318;DHT22;146;53.448;10.228;2022-09-01T10:30:42;20.10;1.00
318;DHT22;146;53.448;10.228;2022-09-01T10:33:11;20.20;1.00
318;DHT22;146;53.448;10.228;2022-09-01T10:35:42;20.20;1.00
318;DHT22;146;53.448;10.228;2022-09-01T10:38:16;20.20;1.00
318;DHT22;146;53.448;10.228;2022-09-01T10:40:46;20.40;1.00
318;DHT22;146;53.448;10.228;2022-09-01T10:43:35;20.40;1.00
318;DHT22;146;53.448;10.228;2022-09-01T10:56:04;20.70;1.00
318;DHT22;146;53.448;10.228;2022-09-01T10:58:41;20.70;1.00
318;DHT22;146;53.448;10.228;2022-09-01T11:01:08;20.70;1.00
318;DHT22;146;53.448;10.228;2022-09-01T11:03:51;20.90;1.00
318;DHT22;146;53.448;10.228;2022-09-01T11:09:22;20.90;1.00
318;DHT22;146;53.448;10.228;2022-09-01T11:12:01;20.90;1.00
318;DHT22;146;53.448;10.228;2022-09-01T11:14:32;20.80;1.00
318;DHT22;146;53.448;10.228;2022-09-01T11:17:15;20.80;1.00
318;DHT22;146;53.448;10.228;2022-09-01T11:19:44;20.80;1.00
318;DHT22;146;53.448;10.228;2022-09-01T11:22:27;20.70;1.00
318;DHT22;146;53.448;10.228;2022-09-01T11:25:12;20.70;1.00
318;DHT22;146;53.448;10.228;2022-09-01T11:27:58;20.70;1.00
318;DHT22;146;53.448;10.228;2022-09-01T11:30:43;20.70;1.00
318;DHT22;146;53.448;10.228;2022-09-01T11:33:32;20.70;1.00
318;DHT22;146;53.448;10.228;2022-09-01T11:36:02;20.70;1.00
318;DHT22;146;53.448;10.228;2022-09-01T11:38:42;20.70;1.00
318;DHT22;146;53.448;10.228;2022-09-01T11:41:20;20.80;1.00
318;DHT22;146;53.448;10.228;2022-09-01T11:43:50;20.90;1.00
318;DHT22;146;53.448;10.228;2022-09-01T11:46:24;21.00;1.00
318;DHT22;146;53.448;10.228;2022-09-01T11:48:53;21.10;1.00
318;DHT22;146;53.448;10.228;2022-09-01T11:51:20;21.20;1.00
318;DHT22;146;53.448;10.228;2022-09-01T11:53:51;21.20;1.00
318;DHT22;146;53.448;10.228;2022-09-01T11:56:25;21.20;1.00
318;DHT22;146;53.448;10.228;2022-09-01T11:58:52;21.20;1.00
318;DHT22;146;53.448;10.228;2022-09-01T12:01:22;21.20;1.00
318;DHT22;146;53.448;10.228;2022-09-01T12:03:57;21.20;1.00
318;DHT22;146;53.448;10.228;2022-09-01T12:06:27;21.20;1.00
318;DHT22;146;53.448;10.228;2022-09-01T12:08:57;21.10;1.00
318;DHT22;146;53.448;10.228;2022-09-01T12:11:26;21.00;1.00
318;DHT22;146;53.448;10.228;2022-09-01T12:13:57;21.00;1.00
318;DHT22;146;53.448;10.228;2022-09-01T12:16:29;21.00;1.00
318;DHT22;146;53.448;10.228;2022-09-01T12:18:58;21.00;1.00
318;DHT22;146;53.448;10.228;2022-09-01T12:21:27;21.00;1.00
318;DHT22;146;53.448;10.228;2022-09-01T12:24:08;21.00;1.00
318;DHT22;146;53.448;10.228;2022-09-01T12:26:35;21.00;1.00
318;DHT22;146;53.448;10.228;2022-09-01T12:29:03;21.00;1.00
318;DHT22;146;53.448;10.228;2022-09-01T12:31:33;21.20;1.00
318;DHT22;146;53.448;10.228;2022-09-01T12:34:00;21.20;1.00
318;DHT22;146;53.448;10.228;2022-09-01T12:36:30;21.30;1.00
318;DHT22;146;53.448;10.228;2022-09-01T12:39:18;21.60;1.00
318;DHT22;146;53.448;10.228;2022-09-01T12:42:00;21.80;1.00
318;DHT22;146;53.448;10.228;2022-09-01T12:44:30;22.00;1.00
318;DHT22;146;53.448;10.228;2022-09-01T12:47:00;22.10;1.00
318;DHT22;146;53.448;10.228;2022-09-01T12:49:36;22.10;1.00
318;DHT22;146;53.448;10.228;2022-09-01T12:52:24;22.10;1.00
318;DHT22;146;53.448;10.228;2022-09-01T12:54:53;21.90;1.00
318;DHT22;146;53.448;10.228;2022-09-01T12:57:33;21.80;1.00
318;DHT22;146;53.448;10.228;2022-09-01T13:00:06;21.70;1.00
318;DHT22;146;53.448;10.228;2022-09-01T13:02:37;21.70;1.00
318;DHT22;146;53.448;10.228;2022-09-01T13:07:43;21.60;1.00
318;DHT22;146;53.448;10.228;2022-09-01T13:10:10;21.70;1.00
318;DHT22;146;53.448;10.228;2022-09-01T13:12:39;21.60;1.00
318;DHT22;146;53.448;10.228;2022-09-01T13:15:10;21.70;1.00
318;DHT22;146;53.448;10.228;2022-09-01T13:17:45;21.70;1.00
318;DHT22;146;53.448;10.228;2022-09-01T13:20:13;21.70;1.00
318;DHT22;146;53.448;10.228;2022-09-01T13:22:40;21.70;1.00
318;DHT22;146;53.448;10.228;2022-09-01T13:25:14;21.60;1.00
318;DHT22;146;53.448;10.228;2022-09-01T13:27:42;21.70;1.00
318;DHT22;146;53.448;10.228;2022-09-01T13:30:10;21.90;1.00
318;DHT22;146;53.448;10.228;2022-09-01T13:32:39;21.90;1.00
318;DHT22;146;53.448;10.228;2022-09-01T13:35:09;22.00;1.00
318;DHT22;146;53.448;10.228;2022-09-01T13:37:36;22.20;1.00
318;DHT22;146;53.448;10.228;2022-09-01T13:40:04;22.40;1.00
318;DHT22;146;53.448;10.228;2022-09-01T13:42:32;22.40;1.00
318;DHT22;146;53.448;10.228;2022-09-01T13:44:59;22.40;1.00
318;DHT22;146;53.448;10.228;2022-09-01T13:47:26;22.40;1.00
318;DHT22;146;53.448;10.228;2022-09-01T13:49:53;22.50;1.00
318;DHT22;146;53.448;10.228;2022-09-01T13:52:21;22.50;1.00
318;DHT22;146;53.448;10.228;2022-09-01T13:54:48;22.40;1.00
318;DHT22;146;53.448;10.228;2022-09-01T13:57:15;22.40;1.00
318;DHT22;146;53.448;10.228;2022-09-01T13:59:42;22.30;1.00
318;DHT22;146;53.448;10.228;2022-09-01T14:02:09;22.20;1.00
318;DHT22;146;53.448;10.228;2022-09-01T14:04:36;22.00;1.00
318;DHT22;146;53.448;10.228;2022-09-01T14:07:03;21.80;1.00
318;DHT22;146;53.448;10.228;2022-09-01T14:09:33;21.80;1.00
318;DHT22;146;53.448;10.228;2022-09-01T14:12:00;21.70;1.00
318;DHT22;146;53.448;10.228;2022-09-01T14:14:27;21.60;1.00
318;DHT22;146;53.448;10.228;2022-09-01T14:16:54;21.50;1.00
318;DHT22;146;53.448;10.228;2022-09-01T14:19:21;21.50;1.00
318;DHT22;146;53.448;10.228;2022-09-01T14:21:49;21.40;1.00
318;DHT22;146;53.448;10.228;2022-09-01T14:24:15;21.40;1.00
318;DHT22;146;53.448;10.228;2022-09-01T14:26:46;21.30;1.00
318;DHT22;146;53.448;10.228;2022-09-01T14:29:12;21.40;1.00
318;DHT22;146;53.448;10.228;2022-09-01T14:31:39;21.50;1.00
318;DHT22;146;53.448;10.228;2022-09-01T14:34:08;21.80;1.00
318;DHT22;146;53.448;10.228;2022-09-01T14:36:36;21.90;1.00
318;DHT22;146;53.448;10.228;2022-09-01T14:39:04;22.00;1.00
318;DHT22;146;53.448;10.228;2022-09-01T14:41:31;22.20;1.00
318;DHT22;146;53.448;10.228;2022-09-01T14:43:59;22.30;1.00
318;DHT22;146;53.448;10.228;2022-09-01T14:46:27;22.20;1.00
318;DHT22;146;53.448;10.228;2022-09-01T14:48:59;22.20;1.00
318;DHT22;146;53.448;10.228;2022-09-01T14:51:27;22.20;1.00
318;DHT22;146;53.448;10.228;2022-09-01T14:53:55;22.00;1.00
318;DHT22;146;53.448;10.228;2022-09-01T14:56:22;21.90;1.00
318;DHT22;146;53.448;10.228;2022-09-01T14:58:50;21.80;1.00
318;DHT22;146;53.448;10.228;2022-09-01T15:01:20;21.70;1.00
318;DHT22;146;53.448;10.228;2022-09-01T15:03:47;21.60;1.00
318;DHT22;146;53.448;10.228;2022-09-01T15:06:15;21.50;1.00
318;DHT22;146;53.448;10.228;2022-09-01T15:08:43;21.30;1.00
318;DHT22;146;53.448;10.228;2022-09-01T15:11:12;21.20;1.00
318;DHT22;146;53.448;10.228;2022-09-01T15:13:39;21.10;1.00
318;DHT22;146;53.448;10.228;2022-09-01T15:16:13;21.20;1.00
318;DHT22;146;53.448;10.228;2022-09-01T15:18:42;21.30;1.00
318;DHT22;146;53.448;10.228;2022-09-01T15:21:17;21.30;1.00
318;DHT22;146;53.448;10.228;2022-09-01T15:23:44;21.50;1.00
318;DHT22;146;53.448;10.228;2022-09-01T15:26:14;21.60;1.00
318;DHT22;146;53.448;10.228;2022-09-01T15:28:41;21.70;1.00
318;DHT22;146;53.448;10.228;2022-09-01T15:31:08;21.70;1.00
318;DHT22;146;53.448;10.228;2022-09-01T15:33:37;21.70;1.00
318;DHT22;146;53.448;10.228;2022-09-01T15:36:06;21.60;1.00
318;DHT22;146;53.448;10.228;2022-09-01T15:38:33;21.40;1.00
318;DHT22;146;53.448;10.228;2022-09-01T15:41:03;21.30;1.00
318;DHT22;146;53.448;10.228;2022-09-01T15:43:30;21.20;1.00
318;DHT22;146;53.448;10.228;2022-09-01T15:45:57;21.00;1.00
318;DHT22;146;53.448;10.228;2022-09-01T15:48:27;21.00;1.00
318;DHT22;146;53.448;10.228;2022-09-01T15:53:52;20.90;1.00
318;DHT22;146;53.448;10.228;2022-09-01T15:56:19;20.90;1.00
318;DHT22;146;53.448;10.228;2022-09-01T15:58:47;20.70;1.00
318;DHT22;146;53.448;10.228;2022-09-01T16:01:15;20.70;1.00
318;DHT22;146;53.448;10.228;2022-09-01T16:03:41;20.70;1.00
318;DHT22;146;53.448;10.228;2022-09-01T16:06:08;20.60;1.00
318;DHT22;146;53.448;10.228;2022-09-01T16:08:36;20.70;1.00
318;DHT22;146;53.448;10.228;2022-09-01T16:11:06;20.70;1.00
318;DHT22;146;53.448;10.228;2022-09-01T16:13:34;20.60;1.00
318;DHT22;146;53.448;10.228;2022-09-01T16:16:08;20.70;1.00
318;DHT22;146;53.448;10.228;2022-09-01T16:18:42;20.70;1.00
318;DHT22;146;53.448;10.228;2022-09-01T16:21:16;20.70;1.00
318;DHT22;146;53.448;10.228;2022-09-01T16:23:48;20.70;1.00
318;DHT22;146;53.448;10.228;2022-09-01T16:26:19;20.70;1.00
318;DHT22;146;53.448;10.228;2022-09-01T16:28:48;20.70;1.00
318;DHT22;146;53.448;10.228;2022-09-01T16:31:20;20.70;1.00
318;DHT22;146;53.448;10.228;2022-09-01T16:33:51;20.70;1.00
318;DHT22;146;53.448;10.228;2022-09-01T16:36:31;20.60;1.00
318;DHT22;146;53.448;10.228;2022-09-01T16:39:05;20.60;1.00
318;DHT22;146;53.448;10.228;2022-09-01T16:41:43;20.70;1.00
318;DHT22;146;53.448;10.228;2022-09-01T16:44:29;20.70;1.00
318;DHT22;146;53.448;10.228;2022-09-01T16:47:06;20.70;1.00
318;DHT22;146;53.448;10.228;2022-09-01T16:49:43;20.50;1.00
318;DHT22;146;53.448;10.228;2022-09-01T16:52:18;20.50;1.00
318;DHT22;146;53.448;10.228;2022-09-01T16:54:57;20.40;1.00
318;DHT22;146;53.448;10.228;2022-09-01T16:57:32;20.30;1.00
318;DHT22;146;53.448;10.228;2022-09-01T17:00:05;20.30;1.00
318;DHT22;146;53.448;10.228;2022-09-01T17:02:40;20.30;1.00
318;DHT22;146;53.448;10.228;2022-09-01T17:05:19;20.30;1.00
318;DHT22;146;53.448;10.228;2022-09-01T17:07:56;20.20;1.00
318;DHT22;146;53.448;10.228;2022-09-01T17:10:39;20.10;1.00
318;DHT22;146;53.448;10.228;2022-09-01T17:13:16;20.10;1.00